createdAt,value
2022-08-19T00:00:30.554Z,21.10
2022-08-19T00:03:19.417Z,21.00
2022-08-19T00:06:07.853Z,21.25
2022-08-19T00:08:56.487Z,22.45
2022-08-19T00:11:46.996Z,22.77
2022-08-19T00:14:35.514Z,22.77
2022-08-19T00:17:23.776Z,24.20
2022-08-19T00:20:14.833Z,24.33
2022-08-19T00:23:05.041Z,23.50
2022-08-19T00:25:53.238Z,24.27
2022-08-19T00:28:42.862Z,24.65
2022-08-19T00:31:32.078Z,25.02
2022-08-19T00:34:20.452Z,25.33
2022-08-19T00:37:08.679Z,26.52
2022-08-19T00:39:57.728Z,26.65
2022-08-19T00:42:46.223Z,26.58
2022-08-19T00:45:36.994Z,26.95
2022-08-19T00:48:25.409Z,26.75
2022-08-19T00:51:13.621Z,27.30
2022-08-19T00:54:03.627Z,26.67
2022-08-19T00:56:52.718Z,27.05
2022-08-19T01:00:02.014Z,28.10
2022-08-19T01:02:52.590Z,28.60
2022-08-19T01:05:42.940Z,28.23
2022-08-19T01:08:31.245Z,27.40
2022-08-19T01:11:19.597Z,28.08
2022-08-19T01:14:09.137Z,27.00
2022-08-19T01:16:57.990Z,28.38
2022-08-19T01:19:48.633Z,27.83
2022-08-19T01:25:33.945Z,27.45
2022-08-19T01:28:33.848Z,28.80
2022-08-19T01:31:27.755Z,27.13
2022-08-19T01:34:16.157Z,28.60
2022-08-19T01:37:11.883Z,27.77
2022-08-19T01:40:01.441Z,28.85
2022-08-19T01:42:50.025Z,28.25
2022-08-19T01:45:38.537Z,27.42
2022-08-19T01:48:26.861Z,28.25
2022-08-19T01:51:16.197Z,26.52
2022-08-19T01:54:04.849Z,27.00
2022-08-19T01:56:56.977Z,26.42
2022-08-19T01:59:47.066Z,27.05
2022-08-19T02:02:35.296Z,26.67
2022-08-19T02:05:24.018Z,27.27
2022-08-19T02:08:12.704Z,26.65
2022-08-19T02:11:01.038Z,28.10
2022-08-19T02:13:51.331Z,27.10
2022-08-19T02:16:40.786Z,26.20
2022-08-19T02:19:29.067Z,26.33
2022-08-19T02:22:17.269Z,26.73
2022-08-19T02:25:06.265Z,25.40
2022-08-19T02:27:54.987Z,25.88
2022-08-19T02:30:44.676Z,26.83
2022-08-19T02:33:32.849Z,25.70
2022-08-19T02:36:21.336Z,26.63
2022-08-19T02:39:08.605Z,25.02
2022-08-19T02:41:56.820Z,26.13
2022-08-19T02:44:45.342Z,26.05
2022-08-19T02:47:35.144Z,26.52
2022-08-19T02:50:23.319Z,25.93
2022-08-19T02:53:11.960Z,27.00
2022-08-19T02:56:01.050Z,25.52
2022-08-19T02:58:50.109Z,27.10
2022-08-19T03:04:30.675Z,25.98
2022-08-19T03:07:20.039Z,25.40
2022-08-19T03:10:09.206Z,26.35
2022-08-19T03:12:57.410Z,26.45
2022-08-19T03:15:47.396Z,26.58
2022-08-19T03:18:35.566Z,27.13
2022-08-19T03:21:27.496Z,26.17
2022-08-19T03:24:17.024Z,27.70
2022-08-19T03:27:06.038Z,27.30
2022-08-19T03:29:54.316Z,26.77
2022-08-19T03:32:45.466Z,27.90
2022-08-19T03:35:34.159Z,27.48
2022-08-19T03:38:23.712Z,28.70
2022-08-19T03:41:14.918Z,29.85
2022-08-19T03:44:03.138Z,29.73
2022-08-19T03:46:52.924Z,30.33
2022-08-19T03:49:41.638Z,30.10
2022-08-19T03:52:29.859Z,30.42
2022-08-19T03:55:19.782Z,30.13
2022-08-19T03:58:08.103Z,31.25
2022-08-19T04:00:57.429Z,29.63
2022-08-19T04:03:47.321Z,29.75
2022-08-19T04:06:39.528Z,29.27
2022-08-19T04:09:28.416Z,29.02
2022-08-19T04:12:17.934Z,29.45
2022-08-19T04:15:07.167Z,27.80
2022-08-19T04:17:55.783Z,28.88
2022-08-19T04:20:45.919Z,27.63
2022-08-19T04:23:34.603Z,27.50
2022-08-19T04:26:25.739Z,27.20
2022-08-19T04:29:18.088Z,26.90
2022-08-19T04:32:08.599Z,26.77
2022-08-19T04:35:02.601Z,26.17
2022-08-19T04:38:04.970Z,27.08
2022-08-19T04:41:11.485Z,26.08
2022-08-19T04:44:04.148Z,24.88
2022-08-19T04:46:54.798Z,25.27
2022-08-19T04:49:43.263Z,24.38
2022-08-19T04:52:32.966Z,22.92
2022-08-19T04:55:21.153Z,23.17
2022-08-19T04:58:09.444Z,22.02
2022-08-19T05:00:58.169Z,22.58
2022-08-19T05:03:48.310Z,23.05
2022-08-19T05:06:37.807Z,21.70
2022-08-19T05:09:25.991Z,21.27
2022-08-19T05:12:16.620Z,20.65
2022-08-19T05:15:06.687Z,20.83
2022-08-19T05:18:12.570Z,20.85
2022-08-19T05:21:25.100Z,21.00
2022-08-19T05:24:14.929Z,20.33
2022-08-19T05:27:06.506Z,18.50
2022-08-19T05:29:54.671Z,19.33
2022-08-19T05:32:43.333Z,20.13
2022-08-19T05:35:34.757Z,19.70
2022-08-19T05:38:24.472Z,19.85
2022-08-19T05:41:14.806Z,19.17
2022-08-19T05:44:06.906Z,19.33
2022-08-19T05:46:55.619Z,18.25
2022-08-19T05:49:44.908Z,19.77
2022-08-19T05:52:34.065Z,19.70
2022-08-19T05:55:24.731Z,19.90
2022-08-19T06:01:05.348Z,18.77
2022-08-19T06:03:53.529Z,19.50
2022-08-19T06:06:42.404Z,19.48
2022-08-19T06:09:30.989Z,20.17
2022-08-19T06:12:20.474Z,20.40
2022-08-19T06:15:11.525Z,18.95
2022-08-19T06:17:59.786Z,19.23
2022-08-19T06:20:56.316Z,19.15
2022-08-19T06:23:44.636Z,20.50
2022-08-19T06:26:33.048Z,19.40
2022-08-19T06:29:24.777Z,19.83
2022-08-19T06:32:13.052Z,20.30
2022-08-19T06:35:01.224Z,20.52
2022-08-19T06:37:49.452Z,20.25
2022-08-19T06:40:38.763Z,20.15
2022-08-19T06:43:28.141Z,19.88
2022-08-19T06:46:20.685Z,20.30
2022-08-19T06:49:11.066Z,21.27
2022-08-19T06:52:00.644Z,20.88
2022-08-19T06:54:56.557Z,20.73
2022-08-19T06:57:47.266Z,20.00
2022-08-19T07:00:35.736Z,20.92
2022-08-19T07:03:25.496Z,21.27
2022-08-19T07:06:43.144Z,22.25
2022-08-19T07:09:26.720Z,20.45
2022-08-19T07:12:16.737Z,21.60
2022-08-19T07:15:06.484Z,22.20
2022-08-19T07:17:54.698Z,22.73
2022-08-19T07:20:45.189Z,22.52
2022-08-19T07:23:33.551Z,22.60
2022-08-19T07:26:27.865Z,23.27
2022-08-19T07:29:17.742Z,22.88
2022-08-19T07:32:07.495Z,23.35
2022-08-19T07:35:04.155Z,23.15
2022-08-19T07:40:43.119Z,22.63
2022-08-19T07:43:35.026Z,23.25
2022-08-19T07:46:23.666Z,22.55
2022-08-19T07:49:20.231Z,21.38
2022-08-19T07:52:10.631Z,21.52
2022-08-19T07:55:01.021Z,21.38
2022-08-19T07:57:49.247Z,22.02
2022-08-19T08:00:37.576Z,20.52
2022-08-19T08:03:47.450Z,21.98
2022-08-19T08:06:53.294Z,21.42
2022-08-19T08:09:44.615Z,22.13
2022-08-19T08:12:42.133Z,21.48
2022-08-19T08:15:30.494Z,21.27
2022-08-19T08:18:19.757Z,21.23
2022-08-19T08:21:07.952Z,21.75
2022-08-19T08:23:56.704Z,19.92
2022-08-19T08:26:46.882Z,22.98
2022-08-19T08:29:41.965Z,21.02
2022-08-19T08:32:31.229Z,18.90
2022-08-19T08:35:22.728Z,17.48
2022-08-19T08:38:10.945Z,17.60
2022-08-19T08:41:07.643Z,17.13
2022-08-19T08:43:58.155Z,15.43
2022-08-19T08:49:47.766Z,15.15
2022-08-19T08:52:45.142Z,15.30
2022-08-19T08:55:36.743Z,15.35
2022-08-19T08:58:31.653Z,15.32
2022-08-19T09:01:20.263Z,15.57
2022-08-19T09:04:10.203Z,15.77
2022-08-19T09:07:27.106Z,15.50
2022-08-19T09:10:29.679Z,15.07
2022-08-19T09:13:27.375Z,14.52
2022-08-19T09:16:21.895Z,15.32
2022-08-19T09:19:22.475Z,14.30
2022-08-19T09:22:10.749Z,14.68
2022-08-19T09:24:58.949Z,14.70
2022-08-19T09:27:47.681Z,15.13
2022-08-19T09:30:41.151Z,15.57
2022-08-19T09:33:30.230Z,14.90
2022-08-19T09:36:31.085Z,15.30
2022-08-19T09:39:23.332Z,13.95
2022-08-19T09:42:16.337Z,14.00
2022-08-19T09:45:21.455Z,14.35
2022-08-19T09:48:11.737Z,15.18
2022-08-19T09:51:05.883Z,14.25
2022-08-19T09:53:55.585Z,14.25
2022-08-19T09:56:44.034Z,15.20
2022-08-19T09:59:33.369Z,14.10
2022-08-19T10:02:22.736Z,13.77
2022-08-19T10:05:28.400Z,15.00
2022-08-19T10:08:21.008Z,14.75
2022-08-19T10:11:27.783Z,16.02
2022-08-19T10:14:23.499Z,15.35
2022-08-19T10:17:17.962Z,15.43
2022-08-19T10:20:10.234Z,14.82
2022-08-19T10:23:00.359Z,14.13
2022-08-19T10:25:50.833Z,14.45
2022-08-19T10:28:40.577Z,14.82
2022-08-19T10:32:00.474Z,14.18
2022-08-19T10:34:52.842Z,14.15
2022-08-19T10:37:56.924Z,15.15
2022-08-19T10:40:45.365Z,14.70
2022-08-19T10:43:35.543Z,14.65
2022-08-19T10:46:25.422Z,14.23
2022-08-19T10:49:15.625Z,15.00
2022-08-19T10:52:27.676Z,14.25
2022-08-19T10:55:41.168Z,14.95
2022-08-19T10:58:29.435Z,14.40
2022-08-19T11:01:17.688Z,14.07
2022-08-19T11:04:09.427Z,13.98
2022-08-19T11:06:58.920Z,14.32
2022-08-19T11:09:48.377Z,13.15
2022-08-19T11:12:39.578Z,13.90
2022-08-19T11:15:29.886Z,12.45
2022-08-19T11:18:18.532Z,14.07
2022-08-19T11:21:17.920Z,13.20
2022-08-19T11:24:10.095Z,13.40
2022-08-19T11:27:05.681Z,12.55
2022-08-19T11:29:53.905Z,11.80
2022-08-19T11:32:47.080Z,12.75
2022-08-19T11:35:41.397Z,11.40
2022-08-19T11:38:30.245Z,12.43
2022-08-19T11:41:23.865Z,12.25
2022-08-19T11:44:12.097Z,12.18
2022-08-19T11:47:09.088Z,11.48
2022-08-19T11:49:58.148Z,10.65
2022-08-19T11:52:47.232Z,11.60
2022-08-19T11:55:43.935Z,11.98
2022-08-19T11:58:35.110Z,13.30
2022-08-19T12:01:25.602Z,12.27
2022-08-19T12:04:13.927Z,12.93
2022-08-19T12:07:02.810Z,13.45
2022-08-19T12:09:51.705Z,12.35
2022-08-19T12:12:43.296Z,11.70
2022-08-19T12:15:37.136Z,10.00
2022-08-19T12:18:25.955Z,10.27
2022-08-19T12:21:14.886Z,10.90
2022-08-19T12:24:05.467Z,10.85
2022-08-19T12:26:56.385Z,10.02
2022-08-19T12:29:49.660Z,12.10
2022-08-19T12:32:39.562Z,11.60
2022-08-19T12:35:28.383Z,10.13
2022-08-19T12:38:16.673Z,11.40
2022-08-19T12:41:07.895Z,11.90
2022-08-19T12:43:56.473Z,12.00
2022-08-19T12:46:44.904Z,9.02
2022-08-19T12:49:54.062Z,10.20
2022-08-19T12:52:43.935Z,9.80
2022-08-19T12:55:32.721Z,11.02
2022-08-19T12:58:24.272Z,9.98
2022-08-19T13:01:20.301Z,10.10
2022-08-19T13:04:11.308Z,9.57
2022-08-19T13:07:00.977Z,10.73
2022-08-19T13:09:49.490Z,10.50
2022-08-19T13:12:38.096Z,10.40
2022-08-19T13:15:26.418Z,9.93
2022-08-19T13:18:15.245Z,8.55
2022-08-19T13:21:05.422Z,8.15
2022-08-19T13:23:55.396Z,7.47
2022-08-19T13:26:43.715Z,7.57
2022-08-19T13:29:49.466Z,7.90
2022-08-19T13:32:55.025Z,7.88
2022-08-19T13:35:46.513Z,8.85
2022-08-19T13:38:34.714Z,8.68
2022-08-19T13:41:24.269Z,8.50
2022-08-19T13:44:12.450Z,7.90
2022-08-19T13:47:07.934Z,7.45
2022-08-19T13:49:56.290Z,7.32
2022-08-19T13:52:45.541Z,6.95
2022-08-19T13:55:33.822Z,6.97
2022-08-19T13:58:24.260Z,9.20
2022-08-19T14:04:00.654Z,6.30
2022-08-19T14:06:48.826Z,6.95
2022-08-19T14:09:37.081Z,6.47
2022-08-19T14:12:28.748Z,6.95
2022-08-19T14:15:18.754Z,7.88
2022-08-19T14:18:07.023Z,6.85
2022-08-19T14:20:55.492Z,6.97
2022-08-19T14:23:43.691Z,7.00
2022-08-19T14:26:31.898Z,8.23
2022-08-19T14:29:21.956Z,7.57
2022-08-19T14:32:13.034Z,6.63
2022-08-19T14:35:06.431Z,6.80
2022-08-19T14:37:56.797Z,7.20
2022-08-19T14:40:45.653Z,7.03
2022-08-19T14:43:33.820Z,7.30
2022-08-19T14:46:25.113Z,7.57
2022-08-19T14:49:14.639Z,6.88
2022-08-19T14:52:04.074Z,6.82
2022-08-19T14:54:52.449Z,7.40
2022-08-19T14:57:42.611Z,6.40
2022-08-19T15:00:30.798Z,7.07
2022-08-19T15:03:18.951Z,7.30
2022-08-19T15:06:09.713Z,7.57
2022-08-19T15:09:04.183Z,7.47
2022-08-19T15:11:52.718Z,7.72
2022-08-19T15:14:43.109Z,7.88
2022-08-19T15:17:45.366Z,8.05
2022-08-19T15:20:34.629Z,7.43
2022-08-19T15:23:24.429Z,7.80
2022-08-19T15:26:16.125Z,6.70
2022-08-19T15:29:05.902Z,6.95
2022-08-19T15:31:56.172Z,7.28
2022-08-19T15:34:45.556Z,6.75
2022-08-19T15:37:37.050Z,6.90
2022-08-19T15:40:29.012Z,7.32
2022-08-19T15:43:17.741Z,6.80
2022-08-19T15:46:06.103Z,6.43
2022-08-19T15:48:56.026Z,6.80
2022-08-19T15:51:49.957Z,6.85
2022-08-19T15:54:38.248Z,7.05
2022-08-19T15:57:45.338Z,6.85
2022-08-19T16:01:02.750Z,7.15
2022-08-19T16:04:05.885Z,7.07
2022-08-19T16:07:04.416Z,6.70
2022-08-19T16:09:52.619Z,7.18
2022-08-19T16:12:42.306Z,6.80
2022-08-19T16:15:31.482Z,6.73
2022-08-19T16:18:19.622Z,6.38
2022-08-19T16:21:08.534Z,6.78
2022-08-19T16:23:56.779Z,6.93
2022-08-19T16:26:46.415Z,6.22
2022-08-19T16:29:39.483Z,6.70
2022-08-19T16:32:28.210Z,6.72
2022-08-19T16:35:16.414Z,6.03
2022-08-19T16:38:05.921Z,5.95
2022-08-19T16:40:54.798Z,6.00
2022-08-19T16:43:43.269Z,6.13
2022-08-19T16:46:32.857Z,6.05
2022-08-19T16:49:22.667Z,6.50
2022-08-19T16:52:30.091Z,6.00
2022-08-19T16:55:18.728Z,5.45
2022-08-19T16:58:06.920Z,5.65
2022-08-19T17:00:55.836Z,5.47
2022-08-19T17:03:45.540Z,5.68
2022-08-19T17:06:36.476Z,5.77
2022-08-19T17:09:26.082Z,5.78
2022-08-19T17:12:15.547Z,6.00
2022-08-19T17:15:05.864Z,5.97
2022-08-19T17:17:56.928Z,5.65
2022-08-19T17:20:47.823Z,5.95
2022-08-19T17:23:42.466Z,7.00
2022-08-19T17:26:32.249Z,7.10
2022-08-19T17:29:20.434Z,7.68
2022-08-19T17:32:10.293Z,7.65
2022-08-19T17:34:58.774Z,6.68
2022-08-19T17:37:49.274Z,7.18
2022-08-19T17:40:37.612Z,7.00
2022-08-19T17:43:32.508Z,7.30
2022-08-19T17:46:23.150Z,6.72
2022-08-19T17:49:11.629Z,7.18
2022-08-19T17:52:00.376Z,7.35
2022-08-19T17:54:49.898Z,7.40
2022-08-19T17:57:41.172Z,7.10
2022-08-19T18:00:30.926Z,6.35
2022-08-19T18:03:19.920Z,6.50
2022-08-19T18:06:08.969Z,6.43
2022-08-19T18:08:57.463Z,6.88
2022-08-19T18:11:46.989Z,5.88
2022-08-19T18:14:42.153Z,6.85
2022-08-19T18:17:31.243Z,6.50
2022-08-19T18:20:19.873Z,6.85
2022-08-19T18:23:45.369Z,6.43
2022-08-19T18:26:16.281Z,6.53
2022-08-19T18:29:05.904Z,6.30
2022-08-19T18:31:57.838Z,5.85
2022-08-19T18:34:46.865Z,5.93
2022-08-19T18:37:35.037Z,6.32
2022-08-19T18:40:53.261Z,6.60
2022-08-19T18:43:59.106Z,7.10
2022-08-19T18:47:06.533Z,7.20
2022-08-19T18:49:54.719Z,7.45
2022-08-19T18:52:42.929Z,7.05
2022-08-19T18:55:31.110Z,7.18
2022-08-19T18:58:20.795Z,6.60
2022-08-19T19:01:13.834Z,6.80
2022-08-19T19:04:05.922Z,6.93
2022-08-19T19:06:54.510Z,6.68
2022-08-19T19:09:42.804Z,7.05
2022-08-19T19:12:31.096Z,7.68
2022-08-19T19:15:19.433Z,7.97
2022-08-19T19:18:07.630Z,7.85
2022-08-19T19:20:58.375Z,8.35
2022-08-19T19:23:46.756Z,7.38
2022-08-19T19:26:35.191Z,8.60
2022-08-19T19:29:24.338Z,8.20
2022-08-19T19:32:18.834Z,7.63
2022-08-19T19:35:09.464Z,8.73
2022-08-19T19:40:47.592Z,7.40
2022-08-19T19:43:40.870Z,8.18
2022-08-19T19:46:29.658Z,9.18
2022-08-19T19:49:17.848Z,9.38
2022-08-19T19:52:07.626Z,8.93
2022-08-19T19:55:03.480Z,8.25
2022-08-19T19:57:53.695Z,8.47
2022-08-19T20:00:42.130Z,8.48
2022-08-19T20:03:31.193Z,8.88
2022-08-19T20:06:20.388Z,8.90
2022-08-19T20:09:08.139Z,9.80
2022-08-19T20:11:58.603Z,9.40
2022-08-19T20:14:47.454Z,9.80
2022-08-19T20:17:42.569Z,9.30
2022-08-19T20:20:31.587Z,10.13
2022-08-19T20:23:21.709Z,10.25
2022-08-19T20:26:18.019Z,11.25
2022-08-19T20:29:38.471Z,10.98
2022-08-19T20:32:27.720Z,10.82
2022-08-19T20:35:18.322Z,11.05
2022-08-19T20:40:56.903Z,10.75
2022-08-19T20:43:45.648Z,10.05
2022-08-19T20:46:35.484Z,10.80
2022-08-19T20:49:27.377Z,10.77
2022-08-19T20:52:16.708Z,9.77
2022-08-19T20:55:05.697Z,11.50
2022-08-19T20:57:54.216Z,11.15
2022-08-19T21:00:44.790Z,10.82
2022-08-19T21:03:43.490Z,11.55
2022-08-19T21:06:31.988Z,11.27
2022-08-19T21:09:20.608Z,11.48
2022-08-19T21:12:09.987Z,11.70
2022-08-19T21:14:58.157Z,11.25
2022-08-19T21:17:48.509Z,11.73
2022-08-19T21:20:38.218Z,11.05
2022-08-19T21:23:28.606Z,10.70
2022-08-19T21:26:16.865Z,9.95
2022-08-19T21:29:05.029Z,12.15
2022-08-19T21:31:53.316Z,11.32
2022-08-19T21:34:41.505Z,12.93
2022-08-19T21:43:11.265Z,13.20
2022-08-19T21:45:59.484Z,11.88
2022-08-19T21:48:48.279Z,13.00
2022-08-19T21:51:36.450Z,12.82
2022-08-19T21:54:26.341Z,13.00
2022-08-19T21:57:26.822Z,12.48
2022-08-19T22:00:18.680Z,12.70
2022-08-19T22:03:07.970Z,12.95
2022-08-19T22:05:56.163Z,13.52
2022-08-19T22:08:44.894Z,15.00
2022-08-19T22:11:34.599Z,14.98
2022-08-19T22:14:22.809Z,14.98
2022-08-19T22:17:10.973Z,15.23
2022-08-19T22:19:59.169Z,15.65
2022-08-19T22:22:49.677Z,15.75
2022-08-19T22:25:41.649Z,15.25
2022-08-19T22:28:31.144Z,15.50
2022-08-19T22:31:19.371Z,16.10
2022-08-19T22:34:07.943Z,16.67
2022-08-19T22:36:56.171Z,16.95
2022-08-19T22:39:44.399Z,16.77
2022-08-19T22:42:33.213Z,16.63
2022-08-19T22:45:23.833Z,16.77
2022-08-19T22:48:13.956Z,17.27
2022-08-19T22:51:19.871Z,17.30
2022-08-19T22:54:08.080Z,17.88
2022-08-19T22:56:56.307Z,19.23
2022-08-19T22:59:44.502Z,19.10
2022-08-19T23:02:38.272Z,18.15
2022-08-19T23:05:28.989Z,20.02
2022-08-19T23:11:05.295Z,19.60
2022-08-19T23:13:53.783Z,20.40
2022-08-19T23:16:42.736Z,20.05
2022-08-19T23:19:32.536Z,20.77
2022-08-19T23:22:20.823Z,20.27
2022-08-19T23:25:17.531Z,21.48
2022-08-19T23:28:24.637Z,21.08
2022-08-19T23:31:12.811Z,21.25
2022-08-19T23:34:01.006Z,20.48
2022-08-19T23:36:50.861Z,19.77
2022-08-19T23:39:39.131Z,20.93
2022-08-19T23:42:28.974Z,21.30
2022-08-19T23:45:23.855Z,20.90
2022-08-19T23:48:12.832Z,22.23
2022-08-19T23:51:02.178Z,20.42
2022-08-19T23:53:51.728Z,20.25
2022-08-19T23:56:39.931Z,20.63
2022-08-19T23:59:28.140Z,21.02
